createdAt,value
2019-04-07T00:00:49.322Z,97230.00
2019-04-07T00:03:16.573Z,97227.00
2019-04-07T00:05:43.912Z,97231.00
2019-04-07T00:08:11.190Z,97231.00
2019-04-07T00:10:39.029Z,97226.00
2019-04-07T00:13:06.188Z,97222.00
2019-04-07T00:15:33.435Z,97222.00
2019-04-07T00:18:00.629Z,97227.00
2019-04-07T00:20:28.177Z,97214.00
2019-04-07T00:22:55.308Z,97219.00
2019-04-07T00:25:22.699Z,97219.00
2019-04-07T00:27:50.310Z,97221.00
2019-04-07T00:30:18.066Z,97215.00
2019-04-07T00:32:45.432Z,97211.00
2019-04-07T00:35:23.264Z,97222.00
2019-04-07T00:37:42.754Z,97217.00
2019-04-07T00:40:10.831Z,97220.00
2019-04-07T00:42:38.178Z,97216.00
2019-04-07T00:45:06.137Z,97217.00
2019-04-07T00:47:33.952Z,97216.00
2019-04-07T00:50:01.722Z,97217.00
2019-04-07T00:52:29.479Z,97214.00
2019-04-07T00:54:57.631Z,97206.00
2019-04-07T00:57:25.373Z,97208.00
2019-04-07T00:59:52.855Z,97211.00
2019-04-07T01:02:21.238Z,97205.00
2019-04-07T01:04:49.710Z,97205.00
2019-04-07T01:07:17.049Z,97211.00
2019-04-07T01:09:44.430Z,97207.00
2019-04-07T01:12:11.591Z,97210.00
2019-04-07T01:14:38.933Z,97211.00
2019-04-07T01:17:06.392Z,97214.00
2019-04-07T01:19:34.372Z,97219.00
2019-04-07T01:22:02.312Z,97218.00
2019-04-07T01:24:29.877Z,97224.00
2019-04-07T01:26:57.409Z,97218.00
2019-04-07T01:29:24.728Z,97207.00
2019-04-07T01:31:51.931Z,97206.00
2019-04-07T01:34:19.660Z,97200.00
2019-04-07T01:36:47.069Z,97195.00
2019-04-07T01:39:14.241Z,97197.00
2019-04-07T01:41:43.425Z,97196.00
2019-04-07T01:44:27.666Z,97187.00
2019-04-07T01:46:58.084Z,97188.00
2019-04-07T01:49:27.287Z,97192.00
2019-04-07T01:51:56.474Z,97189.00
2019-04-07T01:54:34.289Z,97190.00
2019-04-07T01:57:03.413Z,97197.00
2019-04-07T01:59:47.728Z,97184.00
2019-04-07T02:02:17.474Z,97186.00
2019-04-07T02:05:05.618Z,97183.00
2019-04-07T02:07:44.495Z,97178.00
2019-04-07T02:10:32.509Z,97183.00
2019-04-07T02:13:18.705Z,97181.00
2019-04-07T02:15:56.906Z,97183.00
2019-04-07T02:18:41.990Z,97178.00
2019-04-07T02:21:25.889Z,97180.00
2019-04-07T02:24:11.509Z,97183.00
2019-04-07T02:26:47.187Z,97183.00
2019-04-07T02:29:34.662Z,97183.00
2019-04-07T02:32:22.743Z,97180.00
2019-04-07T02:34:54.804Z,97187.00
2019-04-07T02:37:24.526Z,97182.00
2019-04-07T02:39:56.825Z,97183.00
2019-04-07T02:42:28.451Z,97188.00
2019-04-07T02:45:13.810Z,97186.00
2019-04-07T02:47:46.726Z,97185.00
2019-04-07T02:50:16.222Z,97192.00
2019-04-07T02:52:48.153Z,97187.00
2019-04-07T02:55:17.149Z,97193.00
2019-04-07T02:58:02.986Z,97194.00
2019-04-07T03:00:48.740Z,97189.00
2019-04-07T03:03:18.818Z,97186.00
2019-04-07T03:05:48.033Z,97190.00
2019-04-07T03:08:30.093Z,97188.00
2019-04-07T03:11:18.139Z,97186.00
2019-04-07T03:13:57.241Z,97190.00
2019-04-07T03:16:26.490Z,97195.00
2019-04-07T03:18:56.438Z,97199.00
2019-04-07T03:21:26.686Z,97201.00
2019-04-07T03:23:56.505Z,97199.00
2019-04-07T03:26:44.457Z,97203.00
2019-04-07T03:29:14.323Z,97200.00
2019-04-07T03:31:53.661Z,97203.00
2019-04-07T03:34:26.060Z,97205.00
2019-04-07T03:37:22.615Z,97199.00
2019-04-07T03:39:43.778Z,97206.00
2019-04-07T03:42:31.543Z,97203.00
2019-04-07T03:45:04.157Z,97202.00
2019-04-07T03:47:45.725Z,97191.00
2019-04-07T03:50:15.068Z,97200.00
2019-04-07T03:52:45.028Z,97199.00
2019-04-07T03:55:22.809Z,97209.00
2019-04-07T03:58:08.414Z,97212.00
2019-04-07T04:01:13.816Z,97213.00
2019-04-07T04:03:43.962Z,97215.00
2019-04-07T04:06:13.944Z,97221.00
2019-04-07T04:08:43.021Z,97223.00
2019-04-07T04:11:14.771Z,97227.00
2019-04-07T04:13:46.311Z,97229.00
2019-04-07T04:16:13.491Z,97227.00
2019-04-07T04:18:40.710Z,97229.00
2019-04-07T04:21:07.890Z,97241.00
2019-04-07T04:23:35.669Z,97237.00
2019-04-07T04:26:02.982Z,97247.00
2019-04-07T04:28:30.669Z,97236.00
2019-04-07T04:30:57.972Z,97232.00
2019-04-07T04:33:25.565Z,97241.00
2019-04-07T04:35:52.697Z,97242.00
2019-04-07T04:38:20.135Z,97241.00
2019-04-07T04:40:47.249Z,97240.00
2019-04-07T04:43:15.330Z,97246.00
2019-04-07T04:45:42.930Z,97248.00
2019-04-07T04:48:10.282Z,97258.00
2019-04-07T04:50:37.665Z,97261.00
2019-04-07T04:53:06.204Z,97272.00
2019-04-07T04:55:33.817Z,97265.00
2019-04-07T04:58:02.138Z,97273.00
2019-04-07T05:00:29.248Z,97281.00
2019-04-07T05:02:57.015Z,97277.00
2019-04-07T05:05:24.480Z,97282.00
2019-04-07T05:07:59.061Z,97273.00
2019-04-07T05:10:21.072Z,97275.00
2019-04-07T05:12:48.428Z,97279.00
2019-04-07T05:15:16.247Z,97280.00
2019-04-07T05:17:43.808Z,97283.00
2019-04-07T05:20:11.078Z,97296.00
2019-04-07T05:22:38.325Z,97307.00
2019-04-07T05:25:06.995Z,97304.00
2019-04-07T05:27:34.918Z,97305.00
2019-04-07T05:30:06.654Z,97313.00
2019-04-07T05:32:34.000Z,97318.00
2019-04-07T05:35:01.220Z,97318.00
2019-04-07T05:37:28.385Z,97324.00
2019-04-07T05:39:55.874Z,97318.00
2019-04-07T05:42:24.643Z,97323.00
2019-04-07T05:44:51.803Z,97326.00
2019-04-07T05:47:19.322Z,97322.00
2019-04-07T05:49:46.403Z,97323.00
2019-04-07T05:52:13.951Z,97321.00
2019-04-07T05:54:41.322Z,97324.00
2019-04-07T05:57:09.680Z,97321.00
2019-04-07T05:59:37.678Z,97329.00
2019-04-07T06:02:05.132Z,97332.00
2019-04-07T06:04:32.205Z,97338.00
2019-04-07T06:06:59.321Z,97336.00
2019-04-07T06:09:27.952Z,97341.00
2019-04-07T06:11:55.362Z,97336.00
2019-04-07T06:14:22.698Z,97335.00
2019-04-07T06:16:54.253Z,97333.00
2019-04-07T06:19:19.187Z,97347.00
2019-04-07T06:21:48.722Z,97334.00
2019-04-07T06:24:15.701Z,97341.00
2019-04-07T06:26:47.148Z,97341.00
2019-04-07T06:29:12.058Z,97344.00
2019-04-07T06:31:39.402Z,97338.00
2019-04-07T06:34:10.052Z,97338.00
2019-04-07T06:36:35.545Z,97339.00
2019-04-07T06:39:07.238Z,97333.00
2019-04-07T06:41:34.869Z,97337.00
2019-04-07T06:44:09.907Z,97327.00
2019-04-07T06:46:32.956Z,97333.00
2019-04-07T06:49:04.709Z,97332.00
2019-04-07T06:51:33.689Z,97337.00
2019-04-07T06:54:12.294Z,97338.00
2019-04-07T06:56:44.727Z,97335.00
2019-04-07T06:59:16.591Z,97332.00
2019-04-07T07:01:49.263Z,97330.00
2019-04-07T07:04:35.476Z,97330.00
2019-04-07T07:07:19.069Z,97337.00
2019-04-07T07:10:00.953Z,97341.00
2019-04-07T07:12:39.146Z,97335.00
2019-04-07T07:15:14.482Z,97332.00
2019-04-07T07:17:47.834Z,97338.00
2019-04-07T07:20:19.977Z,97342.00
2019-04-07T07:22:51.715Z,97343.00
2019-04-07T07:25:18.874Z,97343.00
2019-04-07T07:27:46.170Z,97348.00
2019-04-07T07:30:17.467Z,97350.00
2019-04-07T07:32:42.835Z,97354.00
2019-04-07T07:35:13.279Z,97354.00
2019-04-07T07:37:39.236Z,97359.00
2019-04-07T07:40:07.882Z,97357.00
2019-04-07T07:42:35.667Z,97361.00
2019-04-07T07:45:08.265Z,97357.00
2019-04-07T07:47:34.054Z,97354.00
2019-04-07T07:50:04.910Z,97359.00
2019-04-07T07:52:30.909Z,97358.00
2019-04-07T07:55:00.806Z,97358.00
2019-04-07T07:57:27.378Z,97365.00
2019-04-07T07:59:55.251Z,97361.00
2019-04-07T08:02:23.778Z,97362.00
2019-04-07T08:04:51.199Z,97354.00
2019-04-07T08:07:18.312Z,97368.00
2019-04-07T08:09:45.567Z,97367.00
2019-04-07T08:12:12.809Z,97376.00
2019-04-07T08:14:40.406Z,97366.00
2019-04-07T08:17:08.452Z,97368.00
2019-04-07T08:19:38.209Z,97371.00
2019-04-07T08:22:07.575Z,97382.00
2019-04-07T08:24:34.110Z,97374.00
2019-04-07T08:27:01.346Z,97381.00
2019-04-07T08:29:29.098Z,97375.00
2019-04-07T08:31:56.570Z,97376.00
2019-04-07T08:34:24.340Z,97373.00
2019-04-07T08:36:51.963Z,97377.00
2019-04-07T08:39:25.040Z,97382.00
2019-04-07T08:41:48.319Z,97383.00
2019-04-07T08:44:16.150Z,97377.00
2019-04-07T08:46:44.411Z,97385.00
2019-04-07T08:49:12.980Z,97380.00
2019-04-07T08:51:40.432Z,97383.00
2019-04-07T08:54:08.541Z,97385.00
2019-04-07T08:56:36.557Z,97389.00
2019-04-07T08:59:03.917Z,97397.00
2019-04-07T09:01:31.541Z,97398.00
2019-04-07T09:03:59.988Z,97397.00
2019-04-07T09:06:29.189Z,97389.00
2019-04-07T09:08:57.340Z,97391.00
2019-04-07T09:11:28.288Z,97387.00
2019-04-07T09:13:56.945Z,97386.00
2019-04-07T09:16:31.664Z,97385.00
2019-04-07T09:19:12.614Z,97380.00
2019-04-07T09:21:50.472Z,97389.00
2019-04-07T09:24:29.847Z,97392.00
2019-04-07T09:27:17.142Z,97397.00
2019-04-07T09:29:59.997Z,97394.00
2019-04-07T09:32:30.095Z,97397.00
2019-04-07T09:35:02.090Z,97396.00
2019-04-07T09:37:32.290Z,97391.00
2019-04-07T09:40:07.118Z,97397.00
2019-04-07T09:42:36.113Z,97389.00
2019-04-07T09:45:17.432Z,97396.00
2019-04-07T09:47:47.154Z,97389.00
2019-04-07T09:50:17.479Z,97389.00
2019-04-07T09:52:55.134Z,97388.00
2019-04-07T09:55:30.107Z,97391.00
2019-04-07T09:58:17.096Z,97385.00
2019-04-07T10:00:55.551Z,97386.00
2019-04-07T10:03:26.102Z,97380.00
2019-04-07T10:05:58.472Z,97387.00
2019-04-07T10:08:30.367Z,97389.00
2019-04-07T10:10:59.580Z,97384.00
2019-04-07T10:13:45.326Z,97386.00
2019-04-07T10:16:33.116Z,97387.00
2019-04-07T10:19:05.014Z,97395.00
2019-04-07T10:21:44.028Z,97385.00
2019-04-07T10:24:13.155Z,97385.00
2019-04-07T10:26:58.894Z,97392.00
2019-04-07T10:29:40.251Z,97379.00
2019-04-07T10:32:09.111Z,97376.00
2019-04-07T10:34:47.411Z,97379.00
2019-04-07T10:37:16.871Z,97374.00
2019-04-07T10:40:02.729Z,97378.00
2019-04-07T10:42:31.537Z,97377.00
2019-04-07T10:45:07.289Z,97375.00
2019-04-07T10:47:52.348Z,97377.00
2019-04-07T10:50:27.225Z,97383.00
2019-04-07T10:52:59.194Z,97371.00
2019-04-07T10:55:44.144Z,97374.00
2019-04-07T10:58:19.812Z,97374.00
2019-04-07T11:00:54.994Z,97374.00
2019-04-07T11:03:36.255Z,97385.00
2019-04-07T11:06:21.597Z,97373.00
2019-04-07T11:09:07.905Z,97376.00
2019-04-07T11:11:48.117Z,97373.00
2019-04-07T11:14:20.228Z,97370.00
2019-04-07T11:16:49.850Z,97374.00
2019-04-07T11:19:27.351Z,97382.00
2019-04-07T11:22:14.436Z,97378.00
2019-04-07T11:24:46.958Z,97367.00
2019-04-07T11:27:19.142Z,97373.00
2019-04-07T11:29:57.435Z,97371.00
2019-04-07T11:32:32.442Z,97377.00
2019-04-07T11:35:18.375Z,97372.00
2019-04-07T11:38:04.703Z,97371.00
2019-04-07T11:40:51.010Z,97377.00
2019-04-07T11:43:22.792Z,97373.00
2019-04-07T11:46:02.270Z,97372.00
2019-04-07T11:48:29.440Z,97375.00
2019-04-07T11:51:05.213Z,97365.00
2019-04-07T11:53:36.956Z,97362.00
2019-04-07T11:56:11.248Z,97358.00
2019-04-07T11:58:56.348Z,97363.00
2019-04-07T12:01:26.112Z,97370.00
2019-04-07T12:03:59.220Z,97368.00
2019-04-07T12:06:41.034Z,97368.00
2019-04-07T12:09:26.941Z,97364.00
2019-04-07T12:12:12.724Z,97355.00
2019-04-07T12:14:56.751Z,97362.00
2019-04-07T12:17:42.582Z,97354.00
2019-04-07T12:20:33.566Z,97354.00
2019-04-07T12:23:06.335Z,97357.00
2019-04-07T12:25:41.652Z,97363.00
2019-04-07T12:28:14.612Z,97352.00
2019-04-07T12:30:41.528Z,97352.00
2019-04-07T12:33:12.090Z,97350.00
2019-04-07T12:35:56.411Z,97348.00
2019-04-07T12:38:44.653Z,97340.00
2019-04-07T12:41:19.105Z,97343.00
2019-04-07T12:43:49.552Z,97340.00
2019-04-07T12:46:24.568Z,97341.00
2019-04-07T12:48:56.548Z,97330.00
2019-04-07T12:51:25.866Z,97328.00
2019-04-07T12:54:07.409Z,97332.00
2019-04-07T12:56:40.558Z,97321.00
2019-04-07T12:59:25.871Z,97317.00
2019-04-07T13:02:00.754Z,97318.00
2019-04-07T13:04:28.713Z,97320.00
2019-04-07T13:06:57.818Z,97323.00
2019-04-07T13:09:32.066Z,97321.00
2019-04-07T13:12:02.983Z,97321.00
2019-04-07T13:14:39.985Z,97310.00
2019-04-07T13:17:11.618Z,97316.00
2019-04-07T13:19:44.156Z,97312.00
2019-04-07T13:22:20.494Z,97306.00
2019-04-07T13:25:05.967Z,97305.00
2019-04-07T13:27:52.079Z,97305.00
2019-04-07T13:30:28.178Z,97300.00
2019-04-07T13:33:04.483Z,97299.00
2019-04-07T13:35:36.633Z,97300.00
2019-04-07T13:38:17.850Z,97302.00
2019-04-07T13:41:04.108Z,97298.00
2019-04-07T13:43:39.279Z,97299.00
2019-04-07T13:46:20.413Z,97298.00
2019-04-07T13:48:42.459Z,97298.00
2019-04-07T13:51:12.859Z,97306.00
2019-04-07T13:53:44.445Z,97298.00
2019-04-07T13:56:15.707Z,97294.00
2019-04-07T13:59:02.086Z,97291.00
2019-04-07T14:01:50.589Z,97285.00
2019-04-07T14:04:21.716Z,97287.00
2019-04-07T14:06:54.449Z,97286.00
2019-04-07T14:09:40.658Z,97288.00
2019-04-07T14:12:12.589Z,97289.00
2019-04-07T14:14:41.113Z,97290.00
2019-04-07T14:17:21.988Z,97293.00
2019-04-07T14:19:57.735Z,97296.00
2019-04-07T14:22:32.269Z,97290.00
2019-04-07T14:25:06.895Z,97291.00
2019-04-07T14:27:42.638Z,97295.00
2019-04-07T14:30:12.654Z,97294.00
2019-04-07T14:32:58.473Z,97285.00
2019-04-07T14:35:27.513Z,97293.00
2019-04-07T14:37:59.383Z,97290.00
2019-04-07T14:40:31.296Z,97289.00
2019-04-07T14:43:15.784Z,97288.00
2019-04-07T14:46:01.511Z,97281.00
2019-04-07T14:48:45.947Z,97283.00
2019-04-07T14:51:31.797Z,97282.00
2019-04-07T14:54:04.420Z,97282.00
2019-04-07T14:56:37.884Z,97280.00
2019-04-07T14:59:08.141Z,97282.00
2019-04-07T15:01:46.881Z,97279.00
2019-04-07T15:04:14.610Z,97278.00
2019-04-07T15:06:41.942Z,97275.00
2019-04-07T15:09:11.093Z,97279.00
2019-04-07T15:11:41.148Z,97276.00
2019-04-07T15:14:08.368Z,97285.00
2019-04-07T15:16:36.680Z,97281.00
2019-04-07T15:19:04.391Z,97280.00
2019-04-07T15:21:31.923Z,97276.00
2019-04-07T15:24:03.069Z,97277.00
2019-04-07T15:26:29.275Z,97273.00
2019-04-07T15:28:58.197Z,97278.00
2019-04-07T15:31:26.384Z,97276.00
2019-04-07T15:33:54.253Z,97273.00
2019-04-07T15:36:22.124Z,97277.00
2019-04-07T15:38:49.769Z,97270.00
2019-04-07T15:41:19.114Z,97264.00
2019-04-07T15:43:46.389Z,97265.00
2019-04-07T15:46:16.734Z,97276.00
2019-04-07T15:48:43.217Z,97283.00
2019-04-07T15:51:10.304Z,97275.00
2019-04-07T15:53:38.297Z,97274.00
2019-04-07T15:56:07.016Z,97280.00
2019-04-07T15:58:35.212Z,97285.00
2019-04-07T16:01:06.699Z,97274.00
2019-04-07T16:03:33.116Z,97282.00
2019-04-07T16:06:00.552Z,97286.00
2019-04-07T16:08:29.495Z,97288.00
2019-04-07T16:11:01.948Z,97290.00
2019-04-07T16:13:29.280Z,97291.00
2019-04-07T16:15:57.476Z,97289.00
2019-04-07T16:18:25.270Z,97292.00
2019-04-07T16:20:53.001Z,97291.00
2019-04-07T16:23:20.957Z,97293.00
2019-04-07T16:25:48.521Z,97291.00
2019-04-07T16:28:16.345Z,97295.00
2019-04-07T16:30:48.574Z,97290.00
2019-04-07T16:33:12.622Z,97290.00
2019-04-07T16:35:39.880Z,97302.00
2019-04-07T16:38:07.442Z,97298.00
2019-04-07T16:40:35.026Z,97299.00
2019-04-07T16:43:12.440Z,97293.00
2019-04-07T16:45:31.761Z,97307.00
2019-04-07T16:47:59.002Z,97298.00
2019-04-07T16:50:26.279Z,97304.00
2019-04-07T16:52:55.332Z,97297.00
2019-04-07T16:55:39.972Z,97298.00
2019-04-07T16:58:08.452Z,97302.00
2019-04-07T17:00:36.221Z,97298.00
2019-04-07T17:03:07.635Z,97301.00
2019-04-07T17:05:36.392Z,97306.00
2019-04-07T17:08:04.040Z,97293.00
2019-04-07T17:10:34.143Z,97298.00
2019-04-07T17:13:05.330Z,97298.00
2019-04-07T17:15:29.781Z,97298.00
2019-04-07T17:17:58.641Z,97298.00
2019-04-07T17:20:28.458Z,97300.00
2019-04-07T17:22:55.120Z,97300.00
2019-04-07T17:25:22.906Z,97310.00
2019-04-07T17:27:50.878Z,97306.00
2019-04-07T17:30:23.206Z,97312.00
2019-04-07T17:32:51.270Z,97313.00
2019-04-07T17:35:19.593Z,97316.00
2019-04-07T17:37:47.347Z,97318.00
2019-04-07T17:40:17.328Z,97323.00
2019-04-07T17:42:45.055Z,97315.00
2019-04-07T17:45:30.959Z,97327.00
2019-04-07T17:48:02.993Z,97326.00
2019-04-07T17:50:42.676Z,97332.00
2019-04-07T17:53:16.205Z,97335.00
2019-04-07T17:56:00.280Z,97340.00
2019-04-07T17:58:32.380Z,97344.00
2019-04-07T18:01:08.276Z,97343.00
2019-04-07T18:03:43.955Z,97342.00
2019-04-07T18:06:31.292Z,97348.00
2019-04-07T18:09:19.906Z,97344.00
2019-04-07T18:11:54.505Z,97351.00
2019-04-07T18:14:40.598Z,97352.00
2019-04-07T18:17:26.807Z,97359.00
2019-04-07T18:20:05.472Z,97351.00
2019-04-07T18:22:32.640Z,97363.00
2019-04-07T18:25:05.217Z,97372.00
2019-04-07T18:27:41.821Z,97375.00
2019-04-07T18:30:23.680Z,97367.00
2019-04-07T18:32:53.478Z,97377.00
2019-04-07T18:35:23.758Z,97368.00
2019-04-07T18:37:56.021Z,97377.00
2019-04-07T18:40:28.513Z,97369.00
2019-04-07T18:43:15.756Z,97375.00
2019-04-07T18:46:01.897Z,97382.00
2019-04-07T18:48:47.816Z,97378.00
2019-04-07T18:51:26.176Z,97378.00
2019-04-07T18:54:04.055Z,97386.00
2019-04-07T18:56:35.065Z,97384.00
2019-04-07T18:59:22.359Z,97386.00
2019-04-07T19:02:11.036Z,97380.00
2019-04-07T19:04:42.210Z,97388.00
2019-04-07T19:07:18.263Z,97387.00
2019-04-07T19:09:50.825Z,97388.00
2019-04-07T19:12:22.114Z,97388.00
2019-04-07T19:15:01.129Z,97384.00
2019-04-07T19:17:34.943Z,97382.00
2019-04-07T19:20:22.891Z,97386.00
2019-04-07T19:22:52.811Z,97384.00
2019-04-07T19:25:33.911Z,97389.00
2019-04-07T19:28:04.675Z,97390.00
2019-04-07T19:30:51.554Z,97385.00
2019-04-07T19:33:25.979Z,97386.00
2019-04-07T19:35:55.237Z,97387.00
2019-04-07T19:38:39.857Z,97394.00
2019-04-07T19:41:11.798Z,97395.00
2019-04-07T19:43:58.898Z,97396.00
2019-04-07T19:46:31.527Z,97387.00
2019-04-07T19:49:03.879Z,97393.00
2019-04-07T19:51:50.838Z,97396.00
2019-04-07T19:54:21.408Z,97391.00
2019-04-07T19:56:56.946Z,97393.00
2019-04-07T19:59:26.767Z,97393.00
2019-04-07T20:01:59.068Z,97380.00
2019-04-07T20:04:47.119Z,97387.00
2019-04-07T20:07:16.070Z,97391.00
2019-04-07T20:09:51.298Z,97390.00
2019-04-07T20:12:20.691Z,97390.00
2019-04-07T20:14:58.560Z,97392.00
2019-04-07T20:17:31.034Z,97392.00
2019-04-07T20:20:17.434Z,97396.00
2019-04-07T20:22:49.518Z,97395.00
2019-04-07T20:25:35.496Z,97397.00
2019-04-07T20:28:10.941Z,97396.00
2019-04-07T20:30:40.198Z,97397.00
2019-04-07T20:33:25.022Z,97394.00
2019-04-07T20:35:56.994Z,97402.00
2019-04-07T20:38:31.817Z,97394.00
2019-04-07T20:41:00.958Z,97399.00
2019-04-07T20:43:46.698Z,97401.00
2019-04-07T20:46:34.517Z,97402.00
2019-04-07T20:49:09.770Z,97408.00
2019-04-07T20:51:38.856Z,97393.00
2019-04-07T20:54:07.934Z,97399.00
2019-04-07T20:56:36.898Z,97398.00
2019-04-07T20:59:08.499Z,97408.00
2019-04-07T21:02:03.374Z,97405.00
2019-04-07T21:04:43.037Z,97409.00
2019-04-07T21:07:12.017Z,97409.00
2019-04-07T21:09:44.299Z,97407.00
2019-04-07T21:12:15.156Z,97410.00
2019-04-07T21:15:16.142Z,97408.00
2019-04-07T21:17:35.937Z,97413.00
2019-04-07T21:20:19.018Z,97412.00
2019-04-07T21:22:48.057Z,97409.00
2019-04-07T21:25:25.135Z,97408.00
2019-04-07T21:28:05.129Z,97406.00
2019-04-07T21:30:39.956Z,97414.00
2019-04-07T21:33:22.475Z,97408.00
2019-04-07T21:36:08.866Z,97416.00
2019-04-07T21:38:43.296Z,97416.00
2019-04-07T21:41:22.160Z,97417.00
2019-04-07T21:43:56.959Z,97424.00
2019-04-07T21:46:27.638Z,97432.00
2019-04-07T21:49:00.654Z,97421.00
2019-04-07T21:51:35.638Z,97431.00
2019-04-07T21:54:10.677Z,97431.00
2019-04-07T21:56:48.887Z,97430.00
2019-04-07T21:59:32.175Z,97430.00
2019-04-07T22:02:09.158Z,97439.00
2019-04-07T22:04:54.578Z,97431.00
2019-04-07T22:07:27.656Z,97437.00
2019-04-07T22:10:03.166Z,97449.00
2019-04-07T22:12:32.397Z,97446.00
2019-04-07T22:15:00.336Z,97444.00
2019-04-07T22:17:27.755Z,97445.00
2019-04-07T22:19:54.878Z,97453.00
2019-04-07T22:22:24.083Z,97446.00
2019-04-07T22:24:51.117Z,97449.00
2019-04-07T22:27:24.098Z,97458.00
2019-04-07T22:29:47.318Z,97447.00
2019-04-07T22:32:17.407Z,97460.00
2019-04-07T22:34:44.070Z,97465.00
2019-04-07T22:37:12.245Z,97463.00
2019-04-07T22:39:39.858Z,97469.00
2019-04-07T22:42:06.996Z,97469.00
2019-04-07T22:44:34.117Z,97472.00
2019-04-07T22:47:01.398Z,97476.00
2019-04-07T22:49:31.471Z,97478.00
2019-04-07T22:51:57.958Z,97480.00
2019-04-07T22:54:30.175Z,97478.00
2019-04-07T22:56:54.356Z,97488.00
2019-04-07T22:59:21.919Z,97479.00
2019-04-07T23:01:49.390Z,97485.00
2019-04-07T23:04:16.585Z,97486.00
2019-04-07T23:06:44.599Z,97489.00
2019-04-07T23:09:11.760Z,97496.00
2019-04-07T23:11:39.836Z,97492.00
2019-04-07T23:14:07.407Z,97491.00
2019-04-07T23:16:35.990Z,97485.00
2019-04-07T23:19:03.401Z,97483.00
2019-04-07T23:21:30.592Z,97493.00
2019-04-07T23:23:57.807Z,97493.00
2019-04-07T23:26:25.100Z,97493.00
2019-04-07T23:28:52.338Z,97498.00
2019-04-07T23:31:19.618Z,97498.00
2019-04-07T23:33:46.840Z,97499.00
2019-04-07T23:36:13.992Z,97505.00
2019-04-07T23:38:41.166Z,97502.00
2019-04-07T23:41:08.398Z,97510.00
2019-04-07T23:43:35.678Z,97505.00
2019-04-07T23:46:05.003Z,97496.00
2019-04-07T23:48:32.665Z,97498.00
2019-04-07T23:51:00.058Z,97497.00
2019-04-07T23:54:09.172Z,97495.00
2019-04-07T23:56:39.409Z,97504.00
2019-04-07T23:59:08.159Z,97497.00
